Nearby METAR Reports

 

KMQY - Smyrna, Tennessee, USA
Distance from station: WNW 14mi, 22km
Updated: Sat, 30-May-2020 1:56pm CDT
Clear
Clear
 Wind from NNW
Wind: NNW 9 mph , 15 km/h
Temperature: 79°F , 26°C
Dew Point: 54°F , 12°C
Humidity: 42%
Barometer: 30.11 inHg , 1019.6 hPa
Clouds: Clear
Visibility: 10 miles , 16 km
2020/05/30 18:56 KMQY 301856Z 34008KT 10SM CLR 26/12 A3011 RMK AO2 SLP201 T02610122 PNO $
KSYI - Shelbyville, Tennessee, USA
Distance from station: SSW 25mi, 40km
Updated: Sat, 30-May-2020 1:55pm CDT
Clear
Clear
 Wind from NNW
Wind: NNW 10 mph , 17 km/h, Gust: 16 mph , 26 km/h
Temperature: 79°F , 26°C
Dew Point: 52°F , 11°C
Humidity: 39%
Barometer: 30.09 inHg , 1019 hPa
Clouds: Clear
Visibility: 10 miles , 16 km
2020/05/30 18:55 KSYI 301855Z AUTO 34009G14KT 10SM CLR 26/11 A3009 RMK A01
KBNA - Nashville, Tennessee, USA
Distance from station: NW 25mi, 41km
Updated: Sat, 30-May-2020 1:53pm CDT
Partly cloudy
Partly cloudy
 Wind from NW
Wind: NW 7 mph , 11 km/h, Gust: 24 mph , 39 km/h
Temperature: 81°F , 27°C
Dew Point: 52°F , 11°C
Humidity: 37%
Barometer: 30.11 inHg , 1019.6 hPa
Clouds: Partly cloudy
Visibility: 10 miles , 16 km
Cloud details: Partly cloudy 6000 ft
Partly cloudy 25000 ft
2020/05/30 18:53 KBNA 301853Z 31006G21KT 10SM SCT060 SCT250 27/11 A3011 RMK AO2 SLP190 T02670111
 
KRNC - Mcminnville, Tennessee, USA
Distance from station: ESE 30mi, 48km
Updated: Sat, 30-May-2020 1:55pm CDT
Mostly cloudy
Mostly cloudy
 Wind from varies
Wind: varies 7 mph , 11 km/h
Temperature: 77°F , 25°C
Dew Point: 55°F , 13°C
Humidity: 47%
Barometer: 30.09 inHg , 1019 hPa
Clouds: Mostly cloudy
Visibility: 10 miles , 16 km
Cloud details: Mostly cloudy 6000 ft
2020/05/30 18:55 KRNC 301855Z AUTO VRB06KT 10SM BKN060 25/13 A3009 RMK A01
KM33 - Gallatin, Tennessee, USA
Distance from station: N 33mi, 54km
Updated: Wed, 23-May-2018 7:55pm CDT
NOT Current
Clear
Clear
 Wind from calm
Wind: Calm
Temperature: 79°F , 26°C
Dew Point: 66°F , 19°C
Humidity: 65%
Barometer: 30.10 inHg , 1019.3 hPa
Clouds: Clear
Visibility: 10 miles , 16 km
2018/05/24 00:55 KM33 240055Z AUTO 00000KT 10SM CLR 26/19 A3010 RMK A01
KTHA - Tullahoma, Tennessee, USA
Distance from station: S 36mi, 59km
Updated: Sat, 30-May-2020 1:55pm CDT
Few Clouds
Few Clouds
 Wind from WNW
Wind: WNW 8 mph , 13 km/h
Temperature: 79°F , 26°C
Dew Point: 55°F , 13°C
Humidity: 45%
Barometer: 30.09 inHg , 1019 hPa
Clouds: Few Clouds
Visibility: 10 miles , 16 km
Cloud details: Few Clouds 5500 ft
2020/05/30 18:55 KTHA 301855Z AUTO 30007KT 10SM FEW055 26/13 A3009 RMK A01
 
KJWN - Nashv/Jc Tune, Tennessee, USA
Distance from station: WNW 37mi, 60km
Updated: Sat, 30-May-2020 1:55pm CDT
Clear
Clear
 Wind from WNW
Wind: WNW 12 mph , 19 km/h
Temperature: 79°F , 26°C
Dew Point: 52°F , 11°C
Humidity: 39%
Barometer: 30.09 inHg , 1019 hPa
Clouds: Clear
Visibility: 10 miles , 16 km
2020/05/30 18:55 KJWN 301855Z AUTO 30010KT 10SM CLR 26/11 A3009 RMK A01
KSRB - Sparta, Tennessee, USA
Distance from station: ENE 45mi, 72km
Updated: Sat, 30-May-2020 1:55pm CDT
Few Clouds
Few Clouds
 Wind from N
Wind: N 8 mph , 13 km/h
Temperature: 79°F , 26°C
Dew Point: 55°F , 13°C
Humidity: 45%
Barometer: 30.09 inHg , 1019 hPa
Clouds: Few Clouds
Visibility: 10 miles , 16 km
Cloud details: Few Clouds 5500 ft
2020/05/30 18:55 KSRB 301855Z AUTO 36007KT 10SM FEW055 26/13 A3009 RMK A01
K1M5 - Portland, Tennessee, USA
Distance from station: NNW 49mi, 78km
Updated: Sat, 30-May-2020 1:55pm CDT
Partly cloudy
Partly cloudy
 Wind from varies
Wind: varies 7 mph , 11 km/h
Temperature: 75°F , 24°C
Dew Point: 55°F , 13°C
Humidity: 50%
Barometer: 30.11 inHg , 1019.6 hPa
Clouds: Partly cloudy
Visibility: 10 miles , 16 km
Cloud details: Partly cloudy 5000 ft
2020/05/30 18:55 K1M5 301855Z AUTO VRB06KT 10SM SCT050 24/13 A3011 RMK A01